MSC Divina — 3FFA5 — position and weather

sailwx.info

Track history (hours):
 
Tides and Currents Weather Stations Pressure Air Temp Water Temp Dewpoint Dewpoint Depression Visibility Wind Speed Wind Dir Waves Ship Positions

MSC Divina

Last reported at 2014-Oct-22 02:12 UTC. Time now 2014-Oct-23 10:10 UTC.
Position N 18°04' W 063°45'.

Length 333 m; draft 8.7 m.

Type: Ship. MMSI: 373178000.

Date/timePositionNaut miles runAvg speedWind from/ knotsBaromVisibWave heightAir tempDewpointWater temp
2014-Oct-22 02:12N 18°04' W 063°45'8 9.2
2014-Oct-22 01:22N 18°03' W 063°37'7 9.3
2014-Oct-22 00:33N 18°02' W 063°29'9 8.8
2014-Oct-21 23:30N 18°02' W 063°20'1313.9
2014-Oct-21 22:33N 17°60' W 063°06'1 0.1
2014-Oct-21 12:26N 18°00' W 063°04'9 9.1
2014-Oct-21 11:24N 18°03' W 063°14'1214.0
2014-Oct-21 10:32N 18°10' W 063°24'1716.6
2014-Oct-21 09:32N 18°21' W 063°38'  
2014-Oct-19 02:15N 26°11' W 079°16'1420.5
2014-Oct-19 01:33N 26°03' W 079°29'2121.2
2014-Oct-19 00:33N 25°52' W 079°49'1717.4
2014-Oct-18 23:33N 25°46' W 080°07'3 2.6
2014-Oct-18 22:23N 25°47' W 080°10'0 0.0
2014-Oct-18 21:26N 25°47' W 080°10'0 0.0
2014-Oct-18 20:27N 25°47' W 080°10'0 0.0
2014-Oct-18 19:27N 25°47' W 080°10'0 0.0
2014-Oct-18 17:26N 25°47' W 080°10'0 0.0
2014-Oct-18 16:33N 25°47' W 080°10'0 0.0
2014-Oct-18 15:32N 25°47' W 080°10'0 0.0
2014-Oct-18 14:33N 25°47' W 080°10'0 0.0
2014-Oct-18 13:21N 25°47' W 080°10'0 0.0
2014-Oct-18 12:21N 25°47' W 080°10'0 0.0
2014-Oct-18 11:33N 25°47' W 080°10'0 0.0
2014-Oct-18 10:32N 25°47' W 080°10'0 0.1
2014-Oct-18 09:32N 25°47' W 080°11'6 6.3
2014-Oct-18 08:33N 25°46' W 080°04'1514.7
2014-Oct-18 07:33N 25°55' W 079°51'1616.1
2014-Oct-18 06:33N 26°01' W 079°34'1716.7
2014-Oct-18 05:33N 26°10' W 079°18'6 0.3
2014-Oct-17 05:33N 26°05' W 079°22'2020.0
2014-Oct-17 04:33N 25°46' W 079°30'51118.0
2014-Oct-16 00:07N 20°39' W 086°54'814.8
2014-Oct-15 23:33N 20°31' W 086°57'1 0.7
2014-Oct-15 22:27N 20°31' W 086°57'0 0.0
2014-Oct-15 21:33N 20°31' W 086°57'0 0.0
2014-Oct-15 20:33N 20°31' W 086°57'0 0.0
2014-Oct-15 19:33N 20°31' W 086°57'0 0.0
2014-Oct-15 18:33N 20°31' W 086°57'0 0.0
2014-Oct-15 17:33N 20°31' W 086°57'0 0.0
2014-Oct-15 16:33N 20°31' W 086°57'0 0.0
2014-Oct-15 15:33N 20°31' W 086°57'0 0.0
2014-Oct-15 14:33N 20°31' W 086°57'5 4.9
2014-Oct-15 13:33N 20°35' W 086°56'  
Track history (hours):
 
Tides and Currents Weather Stations Pressure Air Temp Water Temp Dewpoint Dewpoint Depression Visibility Wind Speed Wind Dir Waves Ship Positions

MSC Divina

Last reported at 2014-Oct-22 02:12 UTC. Time now 2014-Oct-23 10:10 UTC.
Position N 18°04' W 063°45'.

Length 333 m; draft 8.7 m.

Type: Ship. MMSI: 373178000.

Date/timePositionNaut miles runAvg speedWind from/ knotsBaromVisibWave heightAir tempDewpointWater temp
2014-Oct-22 02:12N 18°04' W 063°45'8 9.2
2014-Oct-22 01:22N 18°03' W 063°37'7 9.3
2014-Oct-22 00:33N 18°02' W 063°29'9 8.8
2014-Oct-21 23:30N 18°02' W 063°20'1313.9
2014-Oct-21 22:33N 17°60' W 063°06'1 0.1
2014-Oct-21 12:26N 18°00' W 063°04'9 9.1
2014-Oct-21 11:24N 18°03' W 063°14'1214.0
2014-Oct-21 10:32N 18°10' W 063°24'1716.6
2014-Oct-21 09:32N 18°21' W 063°38'  
2014-Oct-19 02:15N 26°11' W 079°16'1420.5
2014-Oct-19 01:33N 26°03' W 079°29'2121.2
2014-Oct-19 00:33N 25°52' W 079°49'1717.4
2014-Oct-18 23:33N 25°46' W 080°07'3 2.6
2014-Oct-18 22:23N 25°47' W 080°10'0 0.0
2014-Oct-18 21:26N 25°47' W 080°10'0 0.0
2014-Oct-18 20:27N 25°47' W 080°10'0 0.0
2014-Oct-18 19:27N 25°47' W 080°10'0 0.0
2014-Oct-18 17:26N 25°47' W 080°10'0 0.0
2014-Oct-18 16:33N 25°47' W 080°10'0 0.0
2014-Oct-18 15:32N 25°47' W 080°10'0 0.0
2014-Oct-18 14:33N 25°47' W 080°10'0 0.0
2014-Oct-18 13:21N 25°47' W 080°10'0 0.0
2014-Oct-18 12:21N 25°47' W 080°10'0 0.0
2014-Oct-18 11:33N 25°47' W 080°10'0 0.0
2014-Oct-18 10:32N 25°47' W 080°10'0 0.1
2014-Oct-18 09:32N 25°47' W 080°11'6 6.3
2014-Oct-18 08:33N 25°46' W 080°04'1514.7
2014-Oct-18 07:33N 25°55' W 079°51'1616.1
2014-Oct-18 06:33N 26°01' W 079°34'1716.7
2014-Oct-18 05:33N 26°10' W 079°18'6 0.3
2014-Oct-17 05:33N 26°05' W 079°22'2020.0
2014-Oct-17 04:33N 25°46' W 079°30'51118.0
2014-Oct-16 00:07N 20°39' W 086°54'814.8
2014-Oct-15 23:33N 20°31' W 086°57'1 0.7
2014-Oct-15 22:27N 20°31' W 086°57'0 0.0
2014-Oct-15 21:33N 20°31' W 086°57'0 0.0
2014-Oct-15 20:33N 20°31' W 086°57'0 0.0
2014-Oct-15 19:33N 20°31' W 086°57'0 0.0
2014-Oct-15 18:33N 20°31' W 086°57'0 0.0
2014-Oct-15 17:33N 20°31' W 086°57'0 0.0
2014-Oct-15 16:33N 20°31' W 086°57'0 0.0
2014-Oct-15 15:33N 20°31' W 086°57'0 0.0
2014-Oct-15 14:33N 20°31' W 086°57'5 4.9
2014-Oct-15 13:33N 20°35' W 086°56'  

Dump ship's entire track history